Albright, West Virginia
Current Conditions -  °F | °C
As of 1:40 PM on Sunday 21 Dec 2014 (Local Time) from K2G4 Reporting Station
Scattered Clouds Scattered Clouds  
Wind Chill: 32°   Ceiling: Unl
Heat Index: 32°   Visibility: 10mi
Dew Point: 28°   Wind: 3mph
Humidity: 87%   Direction: 200°SSW
Pressure: 30.15"   Gusts: NA
Location:  39.49°N, 79.64°W
Report Text: K2G4 211840Z AUTO 20003KT 10SM SCT015 00/M02 A3015 RMK AO1
Loading
Personal Weather Stations






























Interactive Weather Map New forecast layout! Learn more

10-Day Weather Forecast

Advertisements
Track Severe Weather on mobile